sensor_id;sensor_type;location;lat;lon;timestamp;P1;durP1;ratioP1;P2;durP2;ratioP2
3653;SDS011;70277;54.302;10.064;2023-06-14T00:02:22;6.45;;;3.03;;
3653;SDS011;70277;54.302;10.064;2023-06-14T00:04:49;9.50;;;3.00;;
3653;SDS011;70277;54.302;10.064;2023-06-14T00:07:20;7.18;;;3.15;;
3653;SDS011;70277;54.302;10.064;2023-06-14T00:09:59;9.23;;;3.00;;
3653;SDS011;70277;54.302;10.064;2023-06-14T00:12:25;7.25;;;3.30;;
3653;SDS011;70277;54.302;10.064;2023-06-14T00:14:52;7.75;;;3.38;;
3653;SDS011;70277;54.302;10.064;2023-06-14T00:17:18;8.10;;;3.38;;
3653;SDS011;70277;54.302;10.064;2023-06-14T00:19:45;7.85;;;3.28;;
3653;SDS011;70277;54.302;10.064;2023-06-14T00:22:12;6.32;;;4.40;;
3653;SDS011;70277;54.302;10.064;2023-06-14T00:24:39;9.48;;;3.25;;
3653;SDS011;70277;54.302;10.064;2023-06-14T00:27:05;7.75;;;3.35;;
3653;SDS011;70277;54.302;10.064;2023-06-14T00:29:32;7.75;;;3.30;;
3653;SDS011;70277;54.302;10.064;2023-06-14T00:31:59;9.30;;;3.50;;
3653;SDS011;70277;54.302;10.064;2023-06-14T00:34:26;10.52;;;3.45;;
3653;SDS011;70277;54.302;10.064;2023-06-14T00:36:52;9.50;;;3.03;;
3653;SDS011;70277;54.302;10.064;2023-06-14T00:39:18;10.40;;;3.40;;
3653;SDS011;70277;54.302;10.064;2023-06-14T00:41:45;8.73;;;2.95;;
3653;SDS011;70277;54.302;10.064;2023-06-14T00:44:12;12.77;;;3.05;;
3653;SDS011;70277;54.302;10.064;2023-06-14T00:49:10;10.95;;;3.53;;
3653;SDS011;70277;54.302;10.064;2023-06-14T00:51:38;7.43;;;3.60;;
3653;SDS011;70277;54.302;10.064;2023-06-14T00:54:05;8.35;;;3.30;;
3653;SDS011;70277;54.302;10.064;2023-06-14T00:56:32;11.20;;;4.30;;
3653;SDS011;70277;54.302;10.064;2023-06-14T00:58:58;11.82;;;4.32;;
3653;SDS011;70277;54.302;10.064;2023-06-14T01:01:25;9.23;;;3.97;;
3653;SDS011;70277;54.302;10.064;2023-06-14T01:03:52;9.13;;;3.25;;
3653;SDS011;70277;54.302;10.064;2023-06-14T01:06:29;9.52;;;3.38;;
3653;SDS011;70277;54.302;10.064;2023-06-14T01:09:26;8.02;;;3.85;;
3653;SDS011;70277;54.302;10.064;2023-06-14T01:11:58;9.93;;;3.58;;
3653;SDS011;70277;54.302;10.064;2023-06-14T01:14:31;7.88;;;3.38;;
3653;SDS011;70277;54.302;10.064;2023-06-14T01:17:00;9.15;;;3.38;;
3653;SDS011;70277;54.302;10.064;2023-06-14T01:19:28;9.25;;;3.97;;
3653;SDS011;70277;54.302;10.064;2023-06-14T01:21:55;9.60;;;3.47;;
3653;SDS011;70277;54.302;10.064;2023-06-14T01:24:22;6.80;;;3.42;;
3653;SDS011;70277;54.302;10.064;2023-06-14T01:26:53;10.85;;;3.90;;
3653;SDS011;70277;54.302;10.064;2023-06-14T01:31:49;6.78;;;3.35;;
3653;SDS011;70277;54.302;10.064;2023-06-14T01:34:16;7.70;;;3.88;;
3653;SDS011;70277;54.302;10.064;2023-06-14T01:36:43;11.32;;;4.10;;
3653;SDS011;70277;54.302;10.064;2023-06-14T01:39:11;11.77;;;3.85;;
3653;SDS011;70277;54.302;10.064;2023-06-14T01:41:40;10.82;;;3.80;;
3653;SDS011;70277;54.302;10.064;2023-06-14T01:44:08;9.05;;;3.97;;
3653;SDS011;70277;54.302;10.064;2023-06-14T01:46:36;11.82;;;4.18;;
3653;SDS011;70277;54.302;10.064;2023-06-14T01:49:03;6.55;;;3.58;;
3653;SDS011;70277;54.302;10.064;2023-06-14T01:51:29;11.60;;;3.63;;
3653;SDS011;70277;54.302;10.064;2023-06-14T01:53:56;8.73;;;3.58;;
3653;SDS011;70277;54.302;10.064;2023-06-14T01:56:23;9.65;;;4.07;;
3653;SDS011;70277;54.302;10.064;2023-06-14T01:58:50;17.42;;;4.13;;
3653;SDS011;70277;54.302;10.064;2023-06-14T02:01:16;8.32;;;3.72;;
3653;SDS011;70277;54.302;10.064;2023-06-14T02:03:42;12.70;;;4.88;;
3653;SDS011;70277;54.302;10.064;2023-06-14T02:06:11;7.93;;;3.50;;
3653;SDS011;70277;54.302;10.064;2023-06-14T02:08:38;5.80;;;3.17;;
3653;SDS011;70277;54.302;10.064;2023-06-14T02:11:04;10.52;;;3.38;;
3653;SDS011;70277;54.302;10.064;2023-06-14T02:13:31;9.32;;;3.15;;
3653;SDS011;70277;54.302;10.064;2023-06-14T02:15:57;7.22;;;3.03;;
3653;SDS011;70277;54.302;10.064;2023-06-14T02:18:26;10.43;;;3.60;;
3653;SDS011;70277;54.302;10.064;2023-06-14T02:20:52;8.30;;;3.35;;
3653;SDS011;70277;54.302;10.064;2023-06-14T02:23:19;8.38;;;3.35;;
3653;SDS011;70277;54.302;10.064;2023-06-14T02:25:45;11.98;;;4.15;;
3653;SDS011;70277;54.302;10.064;2023-06-14T02:28:12;10.05;;;3.45;;
3653;SDS011;70277;54.302;10.064;2023-06-14T02:30:39;13.15;;;3.42;;
3653;SDS011;70277;54.302;10.064;2023-06-14T02:33:06;12.82;;;3.17;;
3653;SDS011;70277;54.302;10.064;2023-06-14T02:35:33;5.95;;;3.40;;
3653;SDS011;70277;54.302;10.064;2023-06-14T02:38:00;5.55;;;3.38;;
3653;SDS011;70277;54.302;10.064;2023-06-14T02:40:26;5.57;;;3.47;;
3653;SDS011;70277;54.302;10.064;2023-06-14T02:42:53;8.00;;;3.42;;
3653;SDS011;70277;54.302;10.064;2023-06-14T02:45:19;5.60;;;3.15;;
3653;SDS011;70277;54.302;10.064;2023-06-14T02:47:47;9.18;;;3.38;;
3653;SDS011;70277;54.302;10.064;2023-06-14T02:50:13;8.40;;;3.17;;
3653;SDS011;70277;54.302;10.064;2023-06-14T02:52:40;4.35;;;3.28;;
3653;SDS011;70277;54.302;10.064;2023-06-14T02:55:10;6.35;;;3.50;;
3653;SDS011;70277;54.302;10.064;2023-06-14T02:57:37;6.55;;;2.58;;
3653;SDS011;70277;54.302;10.064;2023-06-14T03:00:04;12.95;;;3.38;;
3653;SDS011;70277;54.302;10.064;2023-06-14T03:02:31;10.05;;;3.05;;
3653;SDS011;70277;54.302;10.064;2023-06-14T03:04:57;6.50;;;2.95;;
3653;SDS011;70277;54.302;10.064;2023-06-14T03:07:27;8.10;;;3.40;;
3653;SDS011;70277;54.302;10.064;2023-06-14T03:09:55;8.05;;;3.40;;
3653;SDS011;70277;54.302;10.064;2023-06-14T03:12:22;7.57;;;3.30;;
3653;SDS011;70277;54.302;10.064;2023-06-14T03:14:49;6.28;;;3.15;;
3653;SDS011;70277;54.302;10.064;2023-06-14T03:17:17;7.07;;;3.10;;
3653;SDS011;70277;54.302;10.064;2023-06-14T03:19:45;7.57;;;3.33;;
3653;SDS011;70277;54.302;10.064;2023-06-14T03:22:12;10.40;;;3.63;;
3653;SDS011;70277;54.302;10.064;2023-06-14T03:24:38;11.07;;;4.28;;
3653;SDS011;70277;54.302;10.064;2023-06-14T03:27:05;9.70;;;3.55;;
3653;SDS011;70277;54.302;10.064;2023-06-14T03:29:32;9.82;;;3.30;;
3653;SDS011;70277;54.302;10.064;2023-06-14T03:32:00;8.55;;;3.40;;
3653;SDS011;70277;54.302;10.064;2023-06-14T03:34:27;12.88;;;3.90;;
3653;SDS011;70277;54.302;10.064;2023-06-14T03:36:54;7.55;;;3.47;;
3653;SDS011;70277;54.302;10.064;2023-06-14T03:39:20;13.68;;;3.80;;
3653;SDS011;70277;54.302;10.064;2023-06-14T03:41:47;8.73;;;3.55;;
3653;SDS011;70277;54.302;10.064;2023-06-14T03:44:15;7.55;;;3.30;;
3653;SDS011;70277;54.302;10.064;2023-06-14T03:46:44;6.80;;;3.38;;
3653;SDS011;70277;54.302;10.064;2023-06-14T03:49:12;14.68;;;3.75;;
3653;SDS011;70277;54.302;10.064;2023-06-14T03:51:39;8.07;;;3.75;;
3653;SDS011;70277;54.302;10.064;2023-06-14T03:54:06;7.75;;;3.38;;
3653;SDS011;70277;54.302;10.064;2023-06-14T03:56:52;9.65;;;3.78;;
3653;SDS011;70277;54.302;10.064;2023-06-14T03:59:19;8.15;;;3.50;;
3653;SDS011;70277;54.302;10.064;2023-06-14T04:01:46;9.45;;;3.85;;
3653;SDS011;70277;54.302;10.064;2023-06-14T04:04:13;6.15;;;3.28;;
3653;SDS011;70277;54.302;10.064;2023-06-14T04:06:39;5.85;;;3.58;;
3653;SDS011;70277;54.302;10.064;2023-06-14T04:09:07;9.68;;;3.90;;
3653;SDS011;70277;54.302;10.064;2023-06-14T04:11:33;7.75;;;3.20;;
3653;SDS011;70277;54.302;10.064;2023-06-14T04:14:01;9.38;;;3.72;;
3653;SDS011;70277;54.302;10.064;2023-06-14T04:16:28;8.90;;;3.60;;
3653;SDS011;70277;54.302;10.064;2023-06-14T04:18:55;6.65;;;3.33;;
3653;SDS011;70277;54.302;10.064;2023-06-14T04:21:22;9.52;;;3.45;;
3653;SDS011;70277;54.302;10.064;2023-06-14T04:23:49;9.85;;;3.33;;
3653;SDS011;70277;54.302;10.064;2023-06-14T04:26:19;9.68;;;3.45;;
3653;SDS011;70277;54.302;10.064;2023-06-14T04:28:48;5.63;;;2.92;;
3653;SDS011;70277;54.302;10.064;2023-06-14T04:31:15;6.57;;;3.15;;
3653;SDS011;70277;54.302;10.064;2023-06-14T04:33:42;7.32;;;3.90;;
3653;SDS011;70277;54.302;10.064;2023-06-14T04:36:10;9.45;;;3.72;;
3653;SDS011;70277;54.302;10.064;2023-06-14T04:38:39;6.00;;;3.20;;
3653;SDS011;70277;54.302;10.064;2023-06-14T04:41:05;11.48;;;3.30;;
3653;SDS011;70277;54.302;10.064;2023-06-14T04:43:32;8.85;;;3.17;;
3653;SDS011;70277;54.302;10.064;2023-06-14T04:46:04;6.90;;;3.10;;
3653;SDS011;70277;54.302;10.064;2023-06-14T04:48:37;8.48;;;3.33;;
3653;SDS011;70277;54.302;10.064;2023-06-14T04:51:07;6.37;;;4.03;;
3653;SDS011;70277;54.302;10.064;2023-06-14T04:53:35;10.13;;;3.90;;
3653;SDS011;70277;54.302;10.064;2023-06-14T04:56:02;10.13;;;3.25;;
3653;SDS011;70277;54.302;10.064;2023-06-14T04:58:30;10.10;;;3.20;;
3653;SDS011;70277;54.302;10.064;2023-06-14T05:00:56;13.38;;;3.45;;
3653;SDS011;70277;54.302;10.064;2023-06-14T05:03:25;5.35;;;3.50;;
3653;SDS011;70277;54.302;10.064;2023-06-14T05:05:54;6.63;;;3.22;;
3653;SDS011;70277;54.302;10.064;2023-06-14T05:08:21;7.45;;;3.25;;
3653;SDS011;70277;54.302;10.064;2023-06-14T05:10:50;5.93;;;3.25;;
3653;SDS011;70277;54.302;10.064;2023-06-14T05:13:17;12.90;;;3.42;;
3653;SDS011;70277;54.302;10.064;2023-06-14T05:15:44;11.10;;;3.35;;
3653;SDS011;70277;54.302;10.064;2023-06-14T05:18:11;6.55;;;3.28;;
3653;SDS011;70277;54.302;10.064;2023-06-14T05:20:39;11.18;;;3.20;;
3653;SDS011;70277;54.302;10.064;2023-06-14T05:23:08;6.88;;;3.05;;
3653;SDS011;70277;54.302;10.064;2023-06-14T05:25:35;8.70;;;3.08;;
3653;SDS011;70277;54.302;10.064;2023-06-14T05:28:01;9.50;;;3.38;;
3653;SDS011;70277;54.302;10.064;2023-06-14T05:30:29;11.80;;;3.45;;
3653;SDS011;70277;54.302;10.064;2023-06-14T05:32:56;12.52;;;3.17;;
3653;SDS011;70277;54.302;10.064;2023-06-14T05:35:23;10.45;;;3.38;;
3653;SDS011;70277;54.302;10.064;2023-06-14T05:37:52;10.30;;;3.13;;
3653;SDS011;70277;54.302;10.064;2023-06-14T05:40:20;12.43;;;3.30;;
3653;SDS011;70277;54.302;10.064;2023-06-14T05:42:46;8.05;;;2.85;;
3653;SDS011;70277;54.302;10.064;2023-06-14T05:45:13;8.57;;;3.20;;
3653;SDS011;70277;54.302;10.064;2023-06-14T05:47:42;3.97;;;2.67;;
3653;SDS011;70277;54.302;10.064;2023-06-14T05:50:09;7.03;;;2.83;;
3653;SDS011;70277;54.302;10.064;2023-06-14T05:52:36;7.30;;;2.85;;
3653;SDS011;70277;54.302;10.064;2023-06-14T05:55:03;11.68;;;3.60;;
3653;SDS011;70277;54.302;10.064;2023-06-14T05:57:30;13.00;;;2.70;;
3653;SDS011;70277;54.302;10.064;2023-06-14T05:59:57;10.10;;;2.88;;
3653;SDS011;70277;54.302;10.064;2023-06-14T06:02:23;6.78;;;2.88;;
3653;SDS011;70277;54.302;10.064;2023-06-14T06:04:50;6.00;;;3.05;;
3653;SDS011;70277;54.302;10.064;2023-06-14T06:07:16;6.07;;;2.60;;
3653;SDS011;70277;54.302;10.064;2023-06-14T06:09:43;5.75;;;2.38;;
3653;SDS011;70277;54.302;10.064;2023-06-14T06:12:09;9.77;;;2.95;;
3653;SDS011;70277;54.302;10.064;2023-06-14T06:14:36;9.65;;;3.03;;
3653;SDS011;70277;54.302;10.064;2023-06-14T06:17:03;14.18;;;3.50;;
3653;SDS011;70277;54.302;10.064;2023-06-14T06:19:30;9.90;;;3.42;;
3653;SDS011;70277;54.302;10.064;2023-06-14T06:21:56;8.02;;;2.90;;
3653;SDS011;70277;54.302;10.064;2023-06-14T06:24:23;7.45;;;3.13;;
3653;SDS011;70277;54.302;10.064;2023-06-14T06:26:49;5.97;;;3.00;;
3653;SDS011;70277;54.302;10.064;2023-06-14T06:29:16;6.35;;;2.83;;
3653;SDS011;70277;54.302;10.064;2023-06-14T06:31:42;6.50;;;2.97;;
3653;SDS011;70277;54.302;10.064;2023-06-14T06:34:09;8.65;;;2.40;;
3653;SDS011;70277;54.302;10.064;2023-06-14T06:36:35;7.28;;;2.83;;
3653;SDS011;70277;54.302;10.064;2023-06-14T06:39:03;6.75;;;2.67;;
3653;SDS011;70277;54.302;10.064;2023-06-14T06:41:39;8.02;;;2.60;;
3653;SDS011;70277;54.302;10.064;2023-06-14T06:44:06;9.65;;;2.92;;
3653;SDS011;70277;54.302;10.064;2023-06-14T06:46:33;10.85;;;2.90;;
3653;SDS011;70277;54.302;10.064;2023-06-14T06:49:01;10.88;;;2.80;;
3653;SDS011;70277;54.302;10.064;2023-06-14T06:51:27;12.70;;;3.15;;
3653;SDS011;70277;54.302;10.064;2023-06-14T06:53:54;9.05;;;2.78;;
3653;SDS011;70277;54.302;10.064;2023-06-14T06:56:21;16.08;;;3.20;;
3653;SDS011;70277;54.302;10.064;2023-06-14T06:58:49;8.73;;;2.90;;
3653;SDS011;70277;54.302;10.064;2023-06-14T07:01:17;7.70;;;2.85;;
3653;SDS011;70277;54.302;10.064;2023-06-14T07:03:45;7.80;;;2.65;;
3653;SDS011;70277;54.302;10.064;2023-06-14T07:06:12;9.43;;;2.85;;
3653;SDS011;70277;54.302;10.064;2023-06-14T07:08:39;4.45;;;2.78;;
3653;SDS011;70277;54.302;10.064;2023-06-14T07:11:05;8.18;;;3.30;;
3653;SDS011;70277;54.302;10.064;2023-06-14T07:13:31;7.45;;;3.30;;
3653;SDS011;70277;54.302;10.064;2023-06-14T07:15:59;8.18;;;2.75;;
3653;SDS011;70277;54.302;10.064;2023-06-14T07:18:27;7.80;;;2.90;;
3653;SDS011;70277;54.302;10.064;2023-06-14T07:20:53;4.53;;;2.97;;
3653;SDS011;70277;54.302;10.064;2023-06-14T07:23:20;8.48;;;2.42;;
3653;SDS011;70277;54.302;10.064;2023-06-14T07:25:47;7.88;;;3.10;;
3653;SDS011;70277;54.302;10.064;2023-06-14T07:28:13;8.50;;;2.90;;
3653;SDS011;70277;54.302;10.064;2023-06-14T07:30:40;9.75;;;2.67;;
3653;SDS011;70277;54.302;10.064;2023-06-14T07:33:06;7.72;;;2.63;;
3653;SDS011;70277;54.302;10.064;2023-06-14T07:35:34;7.13;;;2.75;;
3653;SDS011;70277;54.302;10.064;2023-06-14T07:38:01;6.43;;;2.55;;
3653;SDS011;70277;54.302;10.064;2023-06-14T07:40:27;5.93;;;2.80;;
3653;SDS011;70277;54.302;10.064;2023-06-14T07:42:54;11.23;;;2.80;;
3653;SDS011;70277;54.302;10.064;2023-06-14T07:45:21;9.65;;;2.63;;
3653;SDS011;70277;54.302;10.064;2023-06-14T07:47:47;10.30;;;2.75;;
3653;SDS011;70277;54.302;10.064;2023-06-14T07:50:14;9.18;;;2.92;;
3653;SDS011;70277;54.302;10.064;2023-06-14T07:52:40;9.35;;;3.30;;
3653;SDS011;70277;54.302;10.064;2023-06-14T07:55:07;6.10;;;2.80;;
3653;SDS011;70277;54.302;10.064;2023-06-14T07:57:33;14.13;;;3.10;;
3653;SDS011;70277;54.302;10.064;2023-06-14T08:00:01;14.10;;;3.30;;
3653;SDS011;70277;54.302;10.064;2023-06-14T08:02:28;8.68;;;3.00;;
3653;SDS011;70277;54.302;10.064;2023-06-14T08:04:54;9.93;;;3.00;;
3653;SDS011;70277;54.302;10.064;2023-06-14T08:07:21;11.57;;;3.03;;
3653;SDS011;70277;54.302;10.064;2023-06-14T08:09:47;5.90;;;2.60;;
3653;SDS011;70277;54.302;10.064;2023-06-14T08:12:14;5.45;;;2.60;;
3653;SDS011;70277;54.302;10.064;2023-06-14T08:14:41;7.53;;;2.55;;
3653;SDS011;70277;54.302;10.064;2023-06-14T08:17:08;8.48;;;3.28;;
3653;SDS011;70277;54.302;10.064;2023-06-14T08:19:35;9.02;;;3.03;;
3653;SDS011;70277;54.302;10.064;2023-06-14T08:22:01;6.75;;;2.78;;
3653;SDS011;70277;54.302;10.064;2023-06-14T08:24:29;5.70;;;3.35;;
3653;SDS011;70277;54.302;10.064;2023-06-14T08:26:56;7.88;;;3.17;;
3653;SDS011;70277;54.302;10.064;2023-06-14T08:29:24;7.90;;;2.67;;
3653;SDS011;70277;54.302;10.064;2023-06-14T08:31:50;8.98;;;2.70;;
3653;SDS011;70277;54.302;10.064;2023-06-14T08:34:17;6.13;;;2.90;;
3653;SDS011;70277;54.302;10.064;2023-06-14T08:36:44;7.43;;;3.03;;
3653;SDS011;70277;54.302;10.064;2023-06-14T08:39:10;7.55;;;2.90;;
3653;SDS011;70277;54.302;10.064;2023-06-14T08:41:37;11.38;;;2.75;;
3653;SDS011;70277;54.302;10.064;2023-06-14T08:44:04;8.15;;;2.63;;
3653;SDS011;70277;54.302;10.064;2023-06-14T08:46:31;7.95;;;2.83;;
3653;SDS011;70277;54.302;10.064;2023-06-14T08:49:00;7.63;;;2.72;;
3653;SDS011;70277;54.302;10.064;2023-06-14T08:51:28;8.55;;;2.55;;
3653;SDS011;70277;54.302;10.064;2023-06-14T08:54:00;7.22;;;2.67;;
3653;SDS011;70277;54.302;10.064;2023-06-14T08:56:28;8.75;;;3.08;;
3653;SDS011;70277;54.302;10.064;2023-06-14T08:58:56;8.35;;;2.67;;
3653;SDS011;70277;54.302;10.064;2023-06-14T09:01:23;8.32;;;3.08;;
3653;SDS011;70277;54.302;10.064;2023-06-14T09:03:50;6.13;;;2.30;;
3653;SDS011;70277;54.302;10.064;2023-06-14T09:06:17;6.25;;;2.92;;
3653;SDS011;70277;54.302;10.064;2023-06-14T09:08:45;12.68;;;3.10;;
3653;SDS011;70277;54.302;10.064;2023-06-14T09:11:15;8.70;;;2.83;;
3653;SDS011;70277;54.302;10.064;2023-06-14T09:13:45;7.40;;;2.58;;
3653;SDS011;70277;54.302;10.064;2023-06-14T09:16:12;7.53;;;2.88;;
3653;SDS011;70277;54.302;10.064;2023-06-14T09:18:40;10.68;;;2.70;;
3653;SDS011;70277;54.302;10.064;2023-06-14T09:21:13;6.88;;;2.88;;
3653;SDS011;70277;54.302;10.064;2023-06-14T09:23:44;4.63;;;2.67;;
3653;SDS011;70277;54.302;10.064;2023-06-14T09:28:43;5.88;;;2.33;;
3653;SDS011;70277;54.302;10.064;2023-06-14T09:31:12;7.97;;;2.35;;
3653;SDS011;70277;54.302;10.064;2023-06-14T09:33:43;8.85;;;2.85;;
3653;SDS011;70277;54.302;10.064;2023-06-14T09:36:15;6.32;;;2.75;;
3653;SDS011;70277;54.302;10.064;2023-06-14T09:38:58;5.78;;;2.65;;
3653;SDS011;70277;54.302;10.064;2023-06-14T09:41:33;10.35;;;3.00;;
3653;SDS011;70277;54.302;10.064;2023-06-14T09:44:05;4.00;;;2.67;;
3653;SDS011;70277;54.302;10.064;2023-06-14T09:46:39;5.28;;;2.60;;
3653;SDS011;70277;54.302;10.064;2023-06-14T09:49:06;4.88;;;2.35;;
3653;SDS011;70277;54.302;10.064;2023-06-14T09:51:33;6.25;;;2.88;;
3653;SDS011;70277;54.302;10.064;2023-06-14T09:54:03;10.23;;;2.83;;
3653;SDS011;70277;54.302;10.064;2023-06-14T09:56:41;5.85;;;2.30;;
3653;SDS011;70277;54.302;10.064;2023-06-14T09:59:10;6.00;;;2.45;;
3653;SDS011;70277;54.302;10.064;2023-06-14T10:01:42;12.50;;;2.65;;
3653;SDS011;70277;54.302;10.064;2023-06-14T10:04:10;4.75;;;2.45;;
3653;SDS011;70277;54.302;10.064;2023-06-14T10:06:39;5.88;;;2.30;;
3653;SDS011;70277;54.302;10.064;2023-06-14T10:09:08;6.03;;;2.20;;
3653;SDS011;70277;54.302;10.064;2023-06-14T10:11:36;4.15;;;2.10;;
3653;SDS011;70277;54.302;10.064;2023-06-14T10:14:05;8.32;;;2.45;;
3653;SDS011;70277;54.302;10.064;2023-06-14T10:17:17;6.22;;;2.42;;
3653;SDS011;70277;54.302;10.064;2023-06-14T10:19:46;5.10;;;2.33;;
3653;SDS011;70277;54.302;10.064;2023-06-14T10:22:21;4.07;;;2.15;;
3653;SDS011;70277;54.302;10.064;2023-06-14T10:24:56;10.13;;;2.40;;
3653;SDS011;70277;54.302;10.064;2023-06-14T10:27:23;6.20;;;3.00;;
3653;SDS011;70277;54.302;10.064;2023-06-14T10:32:20;4.55;;;2.40;;
3653;SDS011;70277;54.302;10.064;2023-06-14T10:34:53;10.93;;;2.38;;
3653;SDS011;70277;54.302;10.064;2023-06-14T10:37:30;4.43;;;2.00;;
3653;SDS011;70277;54.302;10.064;2023-06-14T10:39:57;6.05;;;2.20;;
3653;SDS011;70277;54.302;10.064;2023-06-14T10:42:28;6.13;;;1.95;;
3653;SDS011;70277;54.302;10.064;2023-06-14T10:44:58;7.65;;;2.42;;
3653;SDS011;70277;54.302;10.064;2023-06-14T10:52:29;5.13;;;2.30;;
3653;SDS011;70277;54.302;10.064;2023-06-14T10:55:14;8.63;;;2.40;;
3653;SDS011;70277;54.302;10.064;2023-06-14T10:57:45;7.57;;;2.08;;
3653;SDS011;70277;54.302;10.064;2023-06-14T11:00:22;6.85;;;2.13;;
3653;SDS011;70277;54.302;10.064;2023-06-14T11:05:42;4.13;;;2.15;;
3653;SDS011;70277;54.302;10.064;2023-06-14T11:13:42;4.75;;;2.08;;
3653;SDS011;70277;54.302;10.064;2023-06-14T11:16:15;9.63;;;2.10;;
3653;SDS011;70277;54.302;10.064;2023-06-14T11:18:43;5.90;;;2.25;;
3653;SDS011;70277;54.302;10.064;2023-06-14T11:21:14;8.02;;;2.10;;
3653;SDS011;70277;54.302;10.064;2023-06-14T11:23:42;5.40;;;1.95;;
3653;SDS011;70277;54.302;10.064;2023-06-14T11:26:09;4.28;;;2.00;;
3653;SDS011;70277;54.302;10.064;2023-06-14T11:28:39;12.45;;;2.30;;
3653;SDS011;70277;54.302;10.064;2023-06-14T11:31:07;6.30;;;2.10;;
3653;SDS011;70277;54.302;10.064;2023-06-14T11:33:34;3.78;;;2.08;;
3653;SDS011;70277;54.302;10.064;2023-06-14T11:36:04;9.52;;;2.15;;
3653;SDS011;70277;54.302;10.064;2023-06-14T11:38:36;8.52;;;2.47;;
3653;SDS011;70277;54.302;10.064;2023-06-14T11:41:03;7.35;;;2.65;;
3653;SDS011;70277;54.302;10.064;2023-06-14T11:43:30;14.13;;;2.20;;
3653;SDS011;70277;54.302;10.064;2023-06-14T11:45:59;7.47;;;2.42;;
3653;SDS011;70277;54.302;10.064;2023-06-14T11:48:38;7.32;;;2.60;;
3653;SDS011;70277;54.302;10.064;2023-06-14T11:51:06;11.02;;;2.33;;
3653;SDS011;70277;54.302;10.064;2023-06-14T11:53:34;5.45;;;2.30;;
3653;SDS011;70277;54.302;10.064;2023-06-14T11:56:01;14.52;;;2.33;;
3653;SDS011;70277;54.302;10.064;2023-06-14T11:58:28;5.13;;;2.13;;
3653;SDS011;70277;54.302;10.064;2023-06-14T12:00:56;7.97;;;2.17;;
3653;SDS011;70277;54.302;10.064;2023-06-14T12:03:23;5.20;;;2.20;;
3653;SDS011;70277;54.302;10.064;2023-06-14T12:06:13;8.77;;;2.63;;
3653;SDS011;70277;54.302;10.064;2023-06-14T12:08:38;6.72;;;2.35;;
3653;SDS011;70277;54.302;10.064;2023-06-14T12:11:15;7.53;;;2.40;;
3653;SDS011;70277;54.302;10.064;2023-06-14T12:13:43;5.63;;;2.30;;
3653;SDS011;70277;54.302;10.064;2023-06-14T12:16:10;7.90;;;2.05;;
3653;SDS011;70277;54.302;10.064;2023-06-14T12:18:38;5.95;;;2.42;;
3653;SDS011;70277;54.302;10.064;2023-06-14T12:21:07;3.40;;;2.28;;
3653;SDS011;70277;54.302;10.064;2023-06-14T12:23:43;8.60;;;2.55;;
3653;SDS011;70277;54.302;10.064;2023-06-14T12:26:17;3.03;;;2.22;;
3653;SDS011;70277;54.302;10.064;2023-06-14T12:28:45;8.77;;;2.15;;
3653;SDS011;70277;54.302;10.064;2023-06-14T12:31:14;7.55;;;2.10;;
3653;SDS011;70277;54.302;10.064;2023-06-14T12:36:10;8.85;;;2.42;;
3653;SDS011;70277;54.302;10.064;2023-06-14T12:38:37;8.48;;;2.30;;
3653;SDS011;70277;54.302;10.064;2023-06-14T12:41:03;10.70;;;2.30;;
3653;SDS011;70277;54.302;10.064;2023-06-14T12:43:31;4.68;;;1.83;;
3653;SDS011;70277;54.302;10.064;2023-06-14T12:45:57;6.82;;;2.15;;
3653;SDS011;70277;54.302;10.064;2023-06-14T12:48:24;6.60;;;2.15;;
3653;SDS011;70277;54.302;10.064;2023-06-14T12:50:50;5.50;;;2.20;;
3653;SDS011;70277;54.302;10.064;2023-06-14T12:53:17;8.45;;;2.30;;
3653;SDS011;70277;54.302;10.064;2023-06-14T12:55:43;3.60;;;2.20;;
3653;SDS011;70277;54.302;10.064;2023-06-14T12:58:10;4.60;;;2.00;;
3653;SDS011;70277;54.302;10.064;2023-06-14T13:00:39;12.07;;;2.60;;
3653;SDS011;70277;54.302;10.064;2023-06-14T13:03:06;4.75;;;2.20;;
3653;SDS011;70277;54.302;10.064;2023-06-14T13:05:32;8.50;;;2.25;;
3653;SDS011;70277;54.302;10.064;2023-06-14T13:08:00;4.90;;;2.50;;
3653;SDS011;70277;54.302;10.064;2023-06-14T13:10:26;12.05;;;2.40;;
3653;SDS011;70277;54.302;10.064;2023-06-14T13:12:54;12.88;;;2.35;;
3653;SDS011;70277;54.302;10.064;2023-06-14T13:15:21;5.95;;;2.25;;
3653;SDS011;70277;54.302;10.064;2023-06-14T13:17:47;7.10;;;2.40;;
3653;SDS011;70277;54.302;10.064;2023-06-14T13:20:14;9.48;;;2.60;;
3653;SDS011;70277;54.302;10.064;2023-06-14T13:22:45;6.47;;;2.72;;
3653;SDS011;70277;54.302;10.064;2023-06-14T13:25:12;11.90;;;2.47;;
3653;SDS011;70277;54.302;10.064;2023-06-14T13:27:39;5.38;;;2.42;;
3653;SDS011;70277;54.302;10.064;2023-06-14T13:30:06;7.13;;;2.88;;
3653;SDS011;70277;54.302;10.064;2023-06-14T13:32:33;7.85;;;2.65;;
3653;SDS011;70277;54.302;10.064;2023-06-14T13:34:59;5.18;;;2.33;;
3653;SDS011;70277;54.302;10.064;2023-06-14T13:37:26;10.80;;;2.15;;
3653;SDS011;70277;54.302;10.064;2023-06-14T13:39:53;6.72;;;2.53;;
3653;SDS011;70277;54.302;10.064;2023-06-14T13:42:19;7.30;;;2.75;;
3653;SDS011;70277;54.302;10.064;2023-06-14T13:44:46;5.25;;;2.15;;
3653;SDS011;70277;54.302;10.064;2023-06-14T13:47:12;8.98;;;2.75;;
3653;SDS011;70277;54.302;10.064;2023-06-14T13:49:39;7.80;;;2.25;;
3653;SDS011;70277;54.302;10.064;2023-06-14T13:52:06;11.10;;;3.10;;
3653;SDS011;70277;54.302;10.064;2023-06-14T13:54:32;2.35;;;1.98;;
3653;SDS011;70277;54.302;10.064;2023-06-14T13:56:59;7.38;;;3.28;;
3653;SDS011;70277;54.302;10.064;2023-06-14T13:59:25;8.73;;;2.80;;
3653;SDS011;70277;54.302;10.064;2023-06-14T14:01:52;4.35;;;2.50;;
3653;SDS011;70277;54.302;10.064;2023-06-14T14:04:19;5.05;;;2.40;;
3653;SDS011;70277;54.302;10.064;2023-06-14T14:06:46;9.75;;;2.65;;
3653;SDS011;70277;54.302;10.064;2023-06-14T14:09:14;7.82;;;2.47;;
3653;SDS011;70277;54.302;10.064;2023-06-14T14:11:41;11.02;;;2.80;;
3653;SDS011;70277;54.302;10.064;2023-06-14T14:14:08;3.97;;;2.25;;
3653;SDS011;70277;54.302;10.064;2023-06-14T14:16:36;8.82;;;2.60;;
3653;SDS011;70277;54.302;10.064;2023-06-14T14:19:03;10.02;;;2.53;;
3653;SDS011;70277;54.302;10.064;2023-06-14T14:21:30;6.20;;;2.78;;
3653;SDS011;70277;54.302;10.064;2023-06-14T14:23:57;4.45;;;2.40;;
3653;SDS011;70277;54.302;10.064;2023-06-14T14:26:24;6.72;;;2.38;;
3653;SDS011;70277;54.302;10.064;2023-06-14T14:28:51;4.50;;;2.65;;
3653;SDS011;70277;54.302;10.064;2023-06-14T14:31:18;8.65;;;2.65;;
3653;SDS011;70277;54.302;10.064;2023-06-14T14:33:44;2.53;;;2.17;;
3653;SDS011;70277;54.302;10.064;2023-06-14T14:36:11;6.75;;;2.90;;
3653;SDS011;70277;54.302;10.064;2023-06-14T14:38:37;13.13;;;2.83;;
3653;SDS011;70277;54.302;10.064;2023-06-14T14:41:04;10.30;;;3.55;;
3653;SDS011;70277;54.302;10.064;2023-06-14T14:43:31;10.00;;;2.72;;
3653;SDS011;70277;54.302;10.064;2023-06-14T14:45:58;6.07;;;2.67;;
3653;SDS011;70277;54.302;10.064;2023-06-14T14:48:24;5.45;;;2.60;;
3653;SDS011;70277;54.302;10.064;2023-06-14T14:50:51;10.52;;;3.10;;
3653;SDS011;70277;54.302;10.064;2023-06-14T14:53:17;6.82;;;2.72;;
3653;SDS011;70277;54.302;10.064;2023-06-14T14:55:44;6.90;;;3.10;;
3653;SDS011;70277;54.302;10.064;2023-06-14T14:58:12;5.72;;;3.00;;
3653;SDS011;70277;54.302;10.064;2023-06-14T15:00:39;4.95;;;2.80;;
3653;SDS011;70277;54.302;10.064;2023-06-14T15:03:06;6.80;;;2.72;;
3653;SDS011;70277;54.302;10.064;2023-06-14T15:05:32;7.50;;;2.65;;
3653;SDS011;70277;54.302;10.064;2023-06-14T15:07:59;13.73;;;2.90;;
3653;SDS011;70277;54.302;10.064;2023-06-14T15:10:26;6.22;;;2.60;;
3653;SDS011;70277;54.302;10.064;2023-06-14T15:12:52;8.63;;;2.85;;
3653;SDS011;70277;54.302;10.064;2023-06-14T15:15:19;5.60;;;2.35;;
3653;SDS011;70277;54.302;10.064;2023-06-14T15:17:45;8.38;;;2.90;;